sensor_id;sensor_type;location;lat;lon;timestamp;P1;durP1;ratioP1;P2;durP2;ratioP2
54841;SDS011;40741;45.002;7.536;2024-02-14T00:01:52;19.88;;;9.73;;
54841;SDS011;40741;45.002;7.536;2024-02-14T00:04:18;18.15;;;9.63;;
54841;SDS011;40741;45.002;7.536;2024-02-14T00:06:45;15.00;;;8.65;;
54841;SDS011;40741;45.002;7.536;2024-02-14T00:09:11;18.17;;;9.70;;
54841;SDS011;40741;45.002;7.536;2024-02-14T00:11:37;14.75;;;9.00;;
54841;SDS011;40741;45.002;7.536;2024-02-14T00:14:03;18.55;;;10.63;;
54841;SDS011;40741;45.002;7.536;2024-02-14T00:16:29;16.80;;;9.55;;
54841;SDS011;40741;45.002;7.536;2024-02-14T00:18:56;17.50;;;9.02;;
54841;SDS011;40741;45.002;7.536;2024-02-14T00:21:22;13.95;;;8.40;;
54841;SDS011;40741;45.002;7.536;2024-02-14T00:23:49;18.75;;;8.95;;
54841;SDS011;40741;45.002;7.536;2024-02-14T00:26:15;19.15;;;9.73;;
54841;SDS011;40741;45.002;7.536;2024-02-14T00:28:40;16.20;;;9.45;;
54841;SDS011;40741;45.002;7.536;2024-02-14T00:31:06;18.67;;;10.45;;
54841;SDS011;40741;45.002;7.536;2024-02-14T00:33:32;17.95;;;9.90;;
54841;SDS011;40741;45.002;7.536;2024-02-14T00:35:58;19.27;;;10.63;;
54841;SDS011;40741;45.002;7.536;2024-02-14T00:38:24;18.63;;;10.27;;
54841;SDS011;40741;45.002;7.536;2024-02-14T00:40:50;18.38;;;9.88;;
54841;SDS011;40741;45.002;7.536;2024-02-14T00:43:16;19.63;;;10.15;;
54841;SDS011;40741;45.002;7.536;2024-02-14T00:45:42;19.15;;;11.20;;
54841;SDS011;40741;45.002;7.536;2024-02-14T00:48:08;17.45;;;9.63;;
54841;SDS011;40741;45.002;7.536;2024-02-14T00:50:34;19.85;;;10.30;;
54841;SDS011;40741;45.002;7.536;2024-02-14T00:53:01;17.30;;;10.43;;
54841;SDS011;40741;45.002;7.536;2024-02-14T00:55:27;18.63;;;9.82;;
54841;SDS011;40741;45.002;7.536;2024-02-14T00:57:53;16.85;;;10.85;;
54841;SDS011;40741;45.002;7.536;2024-02-14T01:00:19;18.33;;;10.43;;
54841;SDS011;40741;45.002;7.536;2024-02-14T01:02:45;25.00;;;11.10;;
54841;SDS011;40741;45.002;7.536;2024-02-14T01:05:11;21.35;;;10.65;;
54841;SDS011;40741;45.002;7.536;2024-02-14T01:07:37;20.25;;;10.45;;
54841;SDS011;40741;45.002;7.536;2024-02-14T01:10:03;16.70;;;10.23;;
54841;SDS011;40741;45.002;7.536;2024-02-14T01:12:29;18.25;;;11.15;;
54841;SDS011;40741;45.002;7.536;2024-02-14T01:14:55;17.00;;;10.40;;
54841;SDS011;40741;45.002;7.536;2024-02-14T01:17:21;18.38;;;11.43;;
54841;SDS011;40741;45.002;7.536;2024-02-14T01:19:47;17.67;;;11.50;;
54841;SDS011;40741;45.002;7.536;2024-02-14T01:22:13;22.40;;;11.45;;
54841;SDS011;40741;45.002;7.536;2024-02-14T01:24:41;22.95;;;10.90;;
54841;SDS011;40741;45.002;7.536;2024-02-14T01:27:08;19.73;;;11.02;;
54841;SDS011;40741;45.002;7.536;2024-02-14T01:29:34;17.33;;;10.68;;
54841;SDS011;40741;45.002;7.536;2024-02-14T01:32:00;19.85;;;11.07;;
54841;SDS011;40741;45.002;7.536;2024-02-14T01:34:26;20.88;;;11.35;;
54841;SDS011;40741;45.002;7.536;2024-02-14T01:36:53;20.85;;;11.45;;
54841;SDS011;40741;45.002;7.536;2024-02-14T01:39:19;19.90;;;10.38;;
54841;SDS011;40741;45.002;7.536;2024-02-14T01:41:47;22.52;;;11.68;;
54841;SDS011;40741;45.002;7.536;2024-02-14T01:44:16;19.70;;;11.88;;
54841;SDS011;40741;45.002;7.536;2024-02-14T01:46:42;19.13;;;10.82;;
54841;SDS011;40741;45.002;7.536;2024-02-14T01:49:09;14.52;;;8.40;;
54841;SDS011;40741;45.002;7.536;2024-02-14T01:51:36;15.02;;;9.30;;
54841;SDS011;40741;45.002;7.536;2024-02-14T01:54:03;21.77;;;12.25;;
54841;SDS011;40741;45.002;7.536;2024-02-14T01:56:30;19.15;;;12.27;;
54841;SDS011;40741;45.002;7.536;2024-02-14T01:58:56;22.15;;;12.57;;
54841;SDS011;40741;45.002;7.536;2024-02-14T02:01:23;19.02;;;11.88;;
54841;SDS011;40741;45.002;7.536;2024-02-14T02:03:49;21.05;;;12.73;;
54841;SDS011;40741;45.002;7.536;2024-02-14T02:06:16;18.42;;;11.82;;
54841;SDS011;40741;45.002;7.536;2024-02-14T02:08:45;20.67;;;11.77;;
54841;SDS011;40741;45.002;7.536;2024-02-14T02:11:11;21.08;;;11.82;;
54841;SDS011;40741;45.002;7.536;2024-02-14T02:13:37;23.83;;;11.43;;
54841;SDS011;40741;45.002;7.536;2024-02-14T02:16:06;20.48;;;11.07;;
54841;SDS011;40741;45.002;7.536;2024-02-14T02:18:33;21.67;;;11.88;;
54841;SDS011;40741;45.002;7.536;2024-02-14T02:20:59;17.83;;;10.90;;
54841;SDS011;40741;45.002;7.536;2024-02-14T02:23:25;18.38;;;11.57;;
54841;SDS011;40741;45.002;7.536;2024-02-14T02:25:50;19.25;;;11.15;;
54841;SDS011;40741;45.002;7.536;2024-02-14T02:28:16;17.55;;;11.50;;
54841;SDS011;40741;45.002;7.536;2024-02-14T02:30:42;20.10;;;11.20;;
54841;SDS011;40741;45.002;7.536;2024-02-14T02:33:11;20.02;;;11.40;;
54841;SDS011;40741;45.002;7.536;2024-02-14T02:35:39;18.65;;;11.23;;
54841;SDS011;40741;45.002;7.536;2024-02-14T02:38:05;18.23;;;11.55;;
54841;SDS011;40741;45.002;7.536;2024-02-14T02:40:31;17.85;;;11.50;;
54841;SDS011;40741;45.002;7.536;2024-02-14T02:42:57;18.88;;;11.55;;
54841;SDS011;40741;45.002;7.536;2024-02-14T02:45:25;19.45;;;11.02;;
54841;SDS011;40741;45.002;7.536;2024-02-14T02:47:51;20.42;;;11.70;;
54841;SDS011;40741;45.002;7.536;2024-02-14T02:50:17;22.15;;;11.35;;
54841;SDS011;40741;45.002;7.536;2024-02-14T02:52:44;19.77;;;11.57;;
54841;SDS011;40741;45.002;7.536;2024-02-14T02:55:10;20.42;;;11.38;;
54841;SDS011;40741;45.002;7.536;2024-02-14T02:57:36;29.58;;;12.07;;
54841;SDS011;40741;45.002;7.536;2024-02-14T03:00:04;21.10;;;12.20;;
54841;SDS011;40741;45.002;7.536;2024-02-14T03:02:32;24.10;;;12.73;;
54841;SDS011;40741;45.002;7.536;2024-02-14T03:04:59;22.52;;;12.95;;
54841;SDS011;40741;45.002;7.536;2024-02-14T03:07:25;22.70;;;12.70;;
54841;SDS011;40741;45.002;7.536;2024-02-14T03:09:51;25.08;;;13.20;;
54841;SDS011;40741;45.002;7.536;2024-02-14T03:12:17;20.33;;;13.40;;
54841;SDS011;40741;45.002;7.536;2024-02-14T03:14:44;19.17;;;12.85;;
54841;SDS011;40741;45.002;7.536;2024-02-14T03:17:10;21.20;;;12.95;;
54841;SDS011;40741;45.002;7.536;2024-02-14T03:19:36;24.85;;;14.02;;
54841;SDS011;40741;45.002;7.536;2024-02-14T03:22:04;21.85;;;13.15;;
54841;SDS011;40741;45.002;7.536;2024-02-14T03:24:34;20.67;;;12.80;;
54841;SDS011;40741;45.002;7.536;2024-02-14T03:27:02;24.42;;;12.68;;
54841;SDS011;40741;45.002;7.536;2024-02-14T03:29:29;22.33;;;12.48;;
54841;SDS011;40741;45.002;7.536;2024-02-14T03:31:55;21.85;;;13.07;;
54841;SDS011;40741;45.002;7.536;2024-02-14T03:34:23;24.60;;;13.45;;
54841;SDS011;40741;45.002;7.536;2024-02-14T03:36:50;24.77;;;13.98;;
54841;SDS011;40741;45.002;7.536;2024-02-14T03:39:16;22.30;;;13.20;;
54841;SDS011;40741;45.002;7.536;2024-02-14T03:41:42;25.33;;;13.63;;
54841;SDS011;40741;45.002;7.536;2024-02-14T03:44:08;19.00;;;12.73;;
54841;SDS011;40741;45.002;7.536;2024-02-14T03:46:34;19.73;;;12.57;;
54841;SDS011;40741;45.002;7.536;2024-02-14T03:49:00;24.95;;;14.10;;
54841;SDS011;40741;45.002;7.536;2024-02-14T03:51:26;19.17;;;13.07;;
54841;SDS011;40741;45.002;7.536;2024-02-14T03:53:52;18.95;;;12.07;;
54841;SDS011;40741;45.002;7.536;2024-02-14T03:56:18;22.33;;;13.85;;
54841;SDS011;40741;45.002;7.536;2024-02-14T03:58:44;22.20;;;13.35;;
54841;SDS011;40741;45.002;7.536;2024-02-14T04:01:12;21.88;;;13.35;;
54841;SDS011;40741;45.002;7.536;2024-02-14T04:03:38;19.63;;;12.52;;
54841;SDS011;40741;45.002;7.536;2024-02-14T04:06:04;24.50;;;13.65;;
54841;SDS011;40741;45.002;7.536;2024-02-14T04:08:31;25.90;;;14.13;;
54841;SDS011;40741;45.002;7.536;2024-02-14T04:10:58;20.08;;;12.75;;
54841;SDS011;40741;45.002;7.536;2024-02-14T04:13:24;22.27;;;13.68;;
54841;SDS011;40741;45.002;7.536;2024-02-14T04:15:50;26.80;;;13.10;;
54841;SDS011;40741;45.002;7.536;2024-02-14T04:18:16;21.08;;;13.77;;
54841;SDS011;40741;45.002;7.536;2024-02-14T04:20:43;21.85;;;12.68;;
54841;SDS011;40741;45.002;7.536;2024-02-14T04:23:09;24.60;;;14.00;;
54841;SDS011;40741;45.002;7.536;2024-02-14T04:25:35;22.67;;;13.50;;
54841;SDS011;40741;45.002;7.536;2024-02-14T04:28:04;20.55;;;13.73;;
54841;SDS011;40741;45.002;7.536;2024-02-14T04:30:30;20.08;;;13.57;;
54841;SDS011;40741;45.002;7.536;2024-02-14T04:32:56;28.20;;;13.70;;
54841;SDS011;40741;45.002;7.536;2024-02-14T04:35:22;25.52;;;13.05;;
54841;SDS011;40741;45.002;7.536;2024-02-14T04:37:48;23.23;;;12.98;;
54841;SDS011;40741;45.002;7.536;2024-02-14T04:40:15;22.33;;;14.27;;
54841;SDS011;40741;45.002;7.536;2024-02-14T04:42:41;23.80;;;14.43;;
54841;SDS011;40741;45.002;7.536;2024-02-14T04:45:07;22.65;;;12.93;;
54841;SDS011;40741;45.002;7.536;2024-02-14T04:47:33;22.67;;;13.02;;
54841;SDS011;40741;45.002;7.536;2024-02-14T04:49:59;22.13;;;13.65;;
54841;SDS011;40741;45.002;7.536;2024-02-14T04:52:28;21.33;;;13.27;;
54841;SDS011;40741;45.002;7.536;2024-02-14T04:54:55;21.02;;;13.25;;
54841;SDS011;40741;45.002;7.536;2024-02-14T04:57:21;22.30;;;13.20;;
54841;SDS011;40741;45.002;7.536;2024-02-14T04:59:47;23.17;;;12.73;;
54841;SDS011;40741;45.002;7.536;2024-02-14T05:02:13;23.15;;;13.00;;
54841;SDS011;40741;45.002;7.536;2024-02-14T05:04:39;20.42;;;12.27;;
54841;SDS011;40741;45.002;7.536;2024-02-14T05:07:05;18.08;;;12.45;;
54841;SDS011;40741;45.002;7.536;2024-02-14T05:09:32;23.33;;;13.88;;
54841;SDS011;40741;45.002;7.536;2024-02-14T05:11:58;21.67;;;13.13;;
54841;SDS011;40741;45.002;7.536;2024-02-14T05:14:24;23.10;;;13.65;;
54841;SDS011;40741;45.002;7.536;2024-02-14T05:16:50;19.58;;;13.23;;
54841;SDS011;40741;45.002;7.536;2024-02-14T05:19:16;21.90;;;12.50;;
54841;SDS011;40741;45.002;7.536;2024-02-14T05:21:42;24.45;;;15.02;;
54841;SDS011;40741;45.002;7.536;2024-02-14T05:24:08;24.83;;;14.73;;
54841;SDS011;40741;45.002;7.536;2024-02-14T05:26:34;23.90;;;15.10;;
54841;SDS011;40741;45.002;7.536;2024-02-14T05:29:00;26.17;;;15.07;;
54841;SDS011;40741;45.002;7.536;2024-02-14T05:31:28;25.25;;;14.18;;
54841;SDS011;40741;45.002;7.536;2024-02-14T05:34:07;24.10;;;15.00;;
54841;SDS011;40741;45.002;7.536;2024-02-14T05:36:33;24.95;;;13.55;;
54841;SDS011;40741;45.002;7.536;2024-02-14T05:38:59;26.63;;;13.93;;
54841;SDS011;40741;45.002;7.536;2024-02-14T05:41:25;26.77;;;15.27;;
54841;SDS011;40741;45.002;7.536;2024-02-14T05:43:51;22.10;;;14.80;;
54841;SDS011;40741;45.002;7.536;2024-02-14T05:46:17;22.85;;;14.88;;
54841;SDS011;40741;45.002;7.536;2024-02-14T05:48:45;25.92;;;14.63;;
54841;SDS011;40741;45.002;7.536;2024-02-14T05:51:13;21.73;;;14.57;;
54841;SDS011;40741;45.002;7.536;2024-02-14T05:53:39;22.15;;;13.73;;
54841;SDS011;40741;45.002;7.536;2024-02-14T05:56:05;22.95;;;14.70;;
54841;SDS011;40741;45.002;7.536;2024-02-14T05:58:31;22.65;;;14.65;;
54841;SDS011;40741;45.002;7.536;2024-02-14T06:00:57;22.15;;;13.15;;
54841;SDS011;40741;45.002;7.536;2024-02-14T06:03:23;19.75;;;13.00;;
54841;SDS011;40741;45.002;7.536;2024-02-14T06:05:50;18.45;;;13.35;;
54841;SDS011;40741;45.002;7.536;2024-02-14T06:08:16;23.27;;;13.93;;
54841;SDS011;40741;45.002;7.536;2024-02-14T06:10:42;19.63;;;13.70;;
54841;SDS011;40741;45.002;7.536;2024-02-14T06:13:08;24.88;;;13.65;;
54841;SDS011;40741;45.002;7.536;2024-02-14T06:15:34;21.20;;;12.63;;
54841;SDS011;40741;45.002;7.536;2024-02-14T06:18:00;20.60;;;13.45;;
54841;SDS011;40741;45.002;7.536;2024-02-14T06:20:26;25.75;;;14.77;;
54841;SDS011;40741;45.002;7.536;2024-02-14T06:22:52;22.20;;;13.07;;
54841;SDS011;40741;45.002;7.536;2024-02-14T06:25:19;22.95;;;13.60;;
54841;SDS011;40741;45.002;7.536;2024-02-14T06:27:45;23.40;;;13.02;;
54841;SDS011;40741;45.002;7.536;2024-02-14T06:30:12;20.23;;;12.57;;
54841;SDS011;40741;45.002;7.536;2024-02-14T06:32:38;24.05;;;15.35;;
54841;SDS011;40741;45.002;7.536;2024-02-14T06:35:04;22.33;;;13.73;;
54841;SDS011;40741;45.002;7.536;2024-02-14T06:37:30;28.52;;;14.57;;
54841;SDS011;40741;45.002;7.536;2024-02-14T06:39:56;26.08;;;13.70;;
54841;SDS011;40741;45.002;7.536;2024-02-14T06:42:22;20.50;;;14.00;;
54841;SDS011;40741;45.002;7.536;2024-02-14T06:44:48;21.13;;;12.82;;
54841;SDS011;40741;45.002;7.536;2024-02-14T06:47:14;24.92;;;14.88;;
54841;SDS011;40741;45.002;7.536;2024-02-14T06:49:40;23.58;;;14.85;;
54841;SDS011;40741;45.002;7.536;2024-02-14T06:52:08;24.48;;;14.77;;
54841;SDS011;40741;45.002;7.536;2024-02-14T06:54:34;24.50;;;14.65;;
54841;SDS011;40741;45.002;7.536;2024-02-14T06:57:00;24.02;;;14.23;;
54841;SDS011;40741;45.002;7.536;2024-02-14T06:59:26;27.15;;;14.02;;
54841;SDS011;40741;45.002;7.536;2024-02-14T07:01:52;22.25;;;12.95;;
54841;SDS011;40741;45.002;7.536;2024-02-14T07:04:20;19.83;;;12.48;;
54841;SDS011;40741;45.002;7.536;2024-02-14T07:06:50;20.70;;;12.93;;
54841;SDS011;40741;45.002;7.536;2024-02-14T07:09:16;25.33;;;13.48;;
54841;SDS011;40741;45.002;7.536;2024-02-14T07:11:42;20.98;;;11.88;;
54841;SDS011;40741;45.002;7.536;2024-02-14T07:14:10;20.38;;;12.48;;
54841;SDS011;40741;45.002;7.536;2024-02-14T07:16:36;22.27;;;13.57;;
54841;SDS011;40741;45.002;7.536;2024-02-14T07:19:02;17.35;;;10.65;;
54841;SDS011;40741;45.002;7.536;2024-02-14T07:21:28;28.42;;;15.32;;
54841;SDS011;40741;45.002;7.536;2024-02-14T07:23:54;22.27;;;15.75;;
54841;SDS011;40741;45.002;7.536;2024-02-14T07:26:20;32.78;;;17.65;;
54841;SDS011;40741;45.002;7.536;2024-02-14T07:28:46;30.60;;;16.02;;
54841;SDS011;40741;45.002;7.536;2024-02-14T07:31:12;26.05;;;15.88;;
54841;SDS011;40741;45.002;7.536;2024-02-14T07:33:38;25.15;;;15.73;;
54841;SDS011;40741;45.002;7.536;2024-02-14T07:36:04;26.38;;;16.40;;
54841;SDS011;40741;45.002;7.536;2024-02-14T07:38:30;26.70;;;15.45;;
54841;SDS011;40741;45.002;7.536;2024-02-14T07:40:56;28.10;;;14.57;;
54841;SDS011;40741;45.002;7.536;2024-02-14T07:43:22;25.45;;;14.73;;
54841;SDS011;40741;45.002;7.536;2024-02-14T07:45:48;28.48;;;15.18;;
54841;SDS011;40741;45.002;7.536;2024-02-14T07:48:15;25.80;;;15.30;;
54841;SDS011;40741;45.002;7.536;2024-02-14T07:50:41;28.95;;;16.23;;
54841;SDS011;40741;45.002;7.536;2024-02-14T07:53:07;25.13;;;16.42;;
54841;SDS011;40741;45.002;7.536;2024-02-14T07:55:33;32.42;;;17.33;;
54841;SDS011;40741;45.002;7.536;2024-02-14T07:57:59;28.85;;;18.88;;
54841;SDS011;40741;45.002;7.536;2024-02-14T08:00:25;28.67;;;18.40;;
54841;SDS011;40741;45.002;7.536;2024-02-14T08:02:51;27.85;;;17.52;;
54841;SDS011;40741;45.002;7.536;2024-02-14T08:05:17;30.42;;;18.33;;
54841;SDS011;40741;45.002;7.536;2024-02-14T08:07:44;27.33;;;18.40;;
54841;SDS011;40741;45.002;7.536;2024-02-14T08:10:11;31.52;;;15.93;;
54841;SDS011;40741;45.002;7.536;2024-02-14T08:12:37;23.20;;;15.43;;
54841;SDS011;40741;45.002;7.536;2024-02-14T08:15:03;33.22;;;16.58;;
54841;SDS011;40741;45.002;7.536;2024-02-14T08:17:31;31.23;;;15.88;;
54841;SDS011;40741;45.002;7.536;2024-02-14T08:19:58;26.45;;;15.90;;
54841;SDS011;40741;45.002;7.536;2024-02-14T08:22:25;28.73;;;15.65;;
54841;SDS011;40741;45.002;7.536;2024-02-14T08:24:52;27.23;;;15.05;;
54841;SDS011;40741;45.002;7.536;2024-02-14T08:27:18;27.75;;;14.65;;
54841;SDS011;40741;45.002;7.536;2024-02-14T08:29:44;24.38;;;14.68;;
54841;SDS011;40741;45.002;7.536;2024-02-14T08:32:10;24.70;;;14.45;;
54841;SDS011;40741;45.002;7.536;2024-02-14T08:34:36;22.05;;;15.50;;
54841;SDS011;40741;45.002;7.536;2024-02-14T08:37:02;23.40;;;13.88;;
54841;SDS011;40741;45.002;7.536;2024-02-14T08:39:28;24.10;;;14.18;;
54841;SDS011;40741;45.002;7.536;2024-02-14T08:41:54;27.15;;;14.45;;
54841;SDS011;40741;45.002;7.536;2024-02-14T08:44:20;21.55;;;14.75;;
54841;SDS011;40741;45.002;7.536;2024-02-14T08:46:46;23.85;;;14.35;;
54841;SDS011;40741;45.002;7.536;2024-02-14T08:49:14;25.67;;;15.27;;
54841;SDS011;40741;45.002;7.536;2024-02-14T08:51:40;29.98;;;14.45;;
54841;SDS011;40741;45.002;7.536;2024-02-14T08:54:08;23.15;;;14.93;;
54841;SDS011;40741;45.002;7.536;2024-02-14T08:56:35;21.92;;;14.80;;
54841;SDS011;40741;45.002;7.536;2024-02-14T08:59:02;28.40;;;15.63;;
54841;SDS011;40741;45.002;7.536;2024-02-14T09:01:29;23.00;;;15.20;;
54841;SDS011;40741;45.002;7.536;2024-02-14T09:03:56;25.92;;;15.05;;
54841;SDS011;40741;45.002;7.536;2024-02-14T09:06:22;21.02;;;13.80;;
54841;SDS011;40741;45.002;7.536;2024-02-14T09:08:48;24.35;;;15.25;;
54841;SDS011;40741;45.002;7.536;2024-02-14T09:11:21;25.60;;;15.50;;
54841;SDS011;40741;45.002;7.536;2024-02-14T09:13:47;25.27;;;15.20;;
54841;SDS011;40741;45.002;7.536;2024-02-14T09:16:16;22.60;;;14.43;;
54841;SDS011;40741;45.002;7.536;2024-02-14T09:18:42;23.15;;;14.38;;
54841;SDS011;40741;45.002;7.536;2024-02-14T09:21:11;28.40;;;14.05;;
54841;SDS011;40741;45.002;7.536;2024-02-14T09:23:37;21.92;;;14.00;;
54841;SDS011;40741;45.002;7.536;2024-02-14T09:26:05;18.17;;;12.40;;
54841;SDS011;40741;45.002;7.536;2024-02-14T09:28:31;24.38;;;12.85;;
54841;SDS011;40741;45.002;7.536;2024-02-14T09:30:58;23.45;;;13.43;;
54841;SDS011;40741;45.002;7.536;2024-02-14T09:33:24;23.10;;;13.18;;
54841;SDS011;40741;45.002;7.536;2024-02-14T09:35:50;23.75;;;13.43;;
54841;SDS011;40741;45.002;7.536;2024-02-14T09:38:17;20.55;;;12.65;;
54841;SDS011;40741;45.002;7.536;2024-02-14T09:40:43;18.63;;;12.48;;
54841;SDS011;40741;45.002;7.536;2024-02-14T09:43:12;18.25;;;12.90;;
54841;SDS011;40741;45.002;7.536;2024-02-14T09:45:43;19.48;;;12.93;;
54841;SDS011;40741;45.002;7.536;2024-02-14T09:48:09;17.98;;;13.35;;
54841;SDS011;40741;45.002;7.536;2024-02-14T09:50:36;19.45;;;12.30;;
54841;SDS011;40741;45.002;7.536;2024-02-14T09:53:02;18.67;;;12.65;;
54841;SDS011;40741;45.002;7.536;2024-02-14T09:55:29;22.90;;;13.30;;
54841;SDS011;40741;45.002;7.536;2024-02-14T09:57:55;4.35;;;3.17;;
54841;SDS011;40741;45.002;7.536;2024-02-14T10:00:21;7.28;;;4.75;;
54841;SDS011;40741;45.002;7.536;2024-02-14T10:02:48;21.35;;;11.70;;
54841;SDS011;40741;45.002;7.536;2024-02-14T10:05:16;19.98;;;12.20;;
54841;SDS011;40741;45.002;7.536;2024-02-14T10:07:43;20.75;;;13.43;;
54841;SDS011;40741;45.002;7.536;2024-02-14T10:10:09;18.27;;;11.95;;
54841;SDS011;40741;45.002;7.536;2024-02-14T10:12:35;16.90;;;11.23;;
54841;SDS011;40741;45.002;7.536;2024-02-14T10:15:02;12.63;;;8.73;;
54841;SDS011;40741;45.002;7.536;2024-02-14T10:17:29;23.75;;;11.73;;
54841;SDS011;40741;45.002;7.536;2024-02-14T10:19:56;10.07;;;6.88;;
54841;SDS011;40741;45.002;7.536;2024-02-14T10:22:22;16.05;;;10.45;;
54841;SDS011;40741;45.002;7.536;2024-02-14T10:24:48;15.10;;;10.35;;
54841;SDS011;40741;45.002;7.536;2024-02-14T10:27:15;17.40;;;10.80;;
54841;SDS011;40741;45.002;7.536;2024-02-14T10:29:40;20.25;;;11.27;;
54841;SDS011;40741;45.002;7.536;2024-02-14T10:32:10;15.23;;;10.52;;
54841;SDS011;40741;45.002;7.536;2024-02-14T10:34:36;19.80;;;10.38;;
54841;SDS011;40741;45.002;7.536;2024-02-14T10:37:03;15.68;;;10.55;;
54841;SDS011;40741;45.002;7.536;2024-02-14T10:39:31;22.35;;;10.65;;
54841;SDS011;40741;45.002;7.536;2024-02-14T10:41:58;18.00;;;10.10;;
54841;SDS011;40741;45.002;7.536;2024-02-14T10:44:25;14.20;;;9.82;;
54841;SDS011;40741;45.002;7.536;2024-02-14T10:46:51;16.60;;;9.80;;
54841;SDS011;40741;45.002;7.536;2024-02-14T10:49:18;16.58;;;10.00;;
54841;SDS011;40741;45.002;7.536;2024-02-14T10:51:45;13.77;;;8.68;;
54841;SDS011;40741;45.002;7.536;2024-02-14T10:54:14;16.08;;;8.95;;
54841;SDS011;40741;45.002;7.536;2024-02-14T10:56:42;14.73;;;9.07;;
54841;SDS011;40741;45.002;7.536;2024-02-14T10:59:13;16.80;;;9.35;;
54841;SDS011;40741;45.002;7.536;2024-02-14T11:01:40;12.43;;;7.03;;
54841;SDS011;40741;45.002;7.536;2024-02-14T11:04:07;10.13;;;4.45;;
54841;SDS011;40741;45.002;7.536;2024-02-14T11:06:43;13.57;;;7.78;;
54841;SDS011;40741;45.002;7.536;2024-02-14T11:09:11;12.38;;;8.23;;
54841;SDS011;40741;45.002;7.536;2024-02-14T11:11:38;12.32;;;7.78;;
54841;SDS011;40741;45.002;7.536;2024-02-14T11:14:04;15.00;;;8.27;;
54841;SDS011;40741;45.002;7.536;2024-02-14T11:16:31;10.88;;;7.38;;
54841;SDS011;40741;45.002;7.536;2024-02-14T11:19:07;11.70;;;8.13;;
54841;SDS011;40741;45.002;7.536;2024-02-14T11:21:44;15.00;;;8.15;;
54841;SDS011;40741;45.002;7.536;2024-02-14T11:24:11;18.10;;;8.13;;
54841;SDS011;40741;45.002;7.536;2024-02-14T11:26:49;11.55;;;7.45;;
54841;SDS011;40741;45.002;7.536;2024-02-14T11:29:19;13.60;;;8.75;;
54841;SDS011;40741;45.002;7.536;2024-02-14T11:31:45;12.93;;;7.95;;
54841;SDS011;40741;45.002;7.536;2024-02-14T11:34:13;15.50;;;8.15;;
54841;SDS011;40741;45.002;7.536;2024-02-14T11:36:42;15.35;;;8.50;;
54841;SDS011;40741;45.002;7.536;2024-02-14T11:39:09;14.65;;;9.23;;
54841;SDS011;40741;45.002;7.536;2024-02-14T11:41:37;13.00;;;8.02;;
54841;SDS011;40741;45.002;7.536;2024-02-14T11:44:06;13.00;;;7.72;;
54841;SDS011;40741;45.002;7.536;2024-02-14T11:46:32;12.65;;;7.88;;
54841;SDS011;40741;45.002;7.536;2024-02-14T11:49:00;11.27;;;7.97;;
54841;SDS011;40741;45.002;7.536;2024-02-14T11:51:30;14.13;;;9.70;;
54841;SDS011;40741;45.002;7.536;2024-02-14T11:54:00;19.77;;;10.55;;
54841;SDS011;40741;45.002;7.536;2024-02-14T11:56:35;11.50;;;7.55;;
54841;SDS011;40741;45.002;7.536;2024-02-14T11:59:02;15.88;;;9.15;;
54841;SDS011;40741;45.002;7.536;2024-02-14T12:01:30;12.77;;;7.93;;
54841;SDS011;40741;45.002;7.536;2024-02-14T12:03:59;13.65;;;7.15;;
54841;SDS011;40741;45.002;7.536;2024-02-14T12:06:26;12.90;;;7.30;;
54841;SDS011;40741;45.002;7.536;2024-02-14T12:08:53;14.07;;;9.02;;
54841;SDS011;40741;45.002;7.536;2024-02-14T12:11:19;17.90;;;9.02;;
54841;SDS011;40741;45.002;7.536;2024-02-14T12:13:49;14.55;;;8.15;;
54841;SDS011;40741;45.002;7.536;2024-02-14T12:16:15;13.90;;;8.13;;
54841;SDS011;40741;45.002;7.536;2024-02-14T12:18:41;7.00;;;4.80;;
54841;SDS011;40741;45.002;7.536;2024-02-14T12:21:07;5.53;;;2.40;;
54841;SDS011;40741;45.002;7.536;2024-02-14T12:23:33;13.93;;;8.23;;
54841;SDS011;40741;45.002;7.536;2024-02-14T12:26:03;15.18;;;9.48;;
54841;SDS011;40741;45.002;7.536;2024-02-14T12:28:32;15.77;;;9.32;;
54841;SDS011;40741;45.002;7.536;2024-02-14T12:30:59;7.97;;;5.22;;
54841;SDS011;40741;45.002;7.536;2024-02-14T12:33:25;17.27;;;9.90;;
54841;SDS011;40741;45.002;7.536;2024-02-14T12:35:53;9.35;;;5.63;;
54841;SDS011;40741;45.002;7.536;2024-02-14T12:38:20;6.60;;;3.15;;
54841;SDS011;40741;45.002;7.536;2024-02-14T12:40:48;21.25;;;11.07;;
54841;SDS011;40741;45.002;7.536;2024-02-14T12:43:14;10.00;;;6.40;;
54841;SDS011;40741;45.002;7.536;2024-02-14T12:45:43;16.92;;;9.90;;
54841;SDS011;40741;45.002;7.536;2024-02-14T12:48:10;16.38;;;9.95;;
54841;SDS011;40741;45.002;7.536;2024-02-14T12:50:37;14.40;;;8.20;;
54841;SDS011;40741;45.002;7.536;2024-02-14T12:53:06;15.27;;;7.93;;
54841;SDS011;40741;45.002;7.536;2024-02-14T12:55:33;16.73;;;8.95;;
54841;SDS011;40741;45.002;7.536;2024-02-14T12:57:59;14.63;;;9.98;;
54841;SDS011;40741;45.002;7.536;2024-02-14T13:00:26;13.38;;;9.23;;
54841;SDS011;40741;45.002;7.536;2024-02-14T13:02:51;9.05;;;3.47;;
54841;SDS011;40741;45.002;7.536;2024-02-14T13:05:18;12.43;;;8.25;;
54841;SDS011;40741;45.002;7.536;2024-02-14T13:07:45;16.00;;;10.75;;
54841;SDS011;40741;45.002;7.536;2024-02-14T13:10:11;14.75;;;9.82;;
54841;SDS011;40741;45.002;7.536;2024-02-14T13:12:38;11.10;;;6.50;;
54841;SDS011;40741;45.002;7.536;2024-02-14T13:15:04;16.63;;;10.07;;
54841;SDS011;40741;45.002;7.536;2024-02-14T13:17:30;7.40;;;3.30;;
54841;SDS011;40741;45.002;7.536;2024-02-14T13:19:56;6.82;;;3.45;;
54841;SDS011;40741;45.002;7.536;2024-02-14T13:22:24;15.60;;;8.27;;
54841;SDS011;40741;45.002;7.536;2024-02-14T13:24:50;14.80;;;9.57;;
54841;SDS011;40741;45.002;7.536;2024-02-14T13:27:16;11.40;;;6.35;;
54841;SDS011;40741;45.002;7.536;2024-02-14T13:29:44;5.30;;;3.20;;
54841;SDS011;40741;45.002;7.536;2024-02-14T13:32:11;17.70;;;11.13;;
54841;SDS011;40741;45.002;7.536;2024-02-14T13:34:37;15.18;;;8.85;;
54841;SDS011;40741;45.002;7.536;2024-02-14T13:37:03;9.30;;;4.65;;
54841;SDS011;40741;45.002;7.536;2024-02-14T13:39:29;15.50;;;8.70;;
54841;SDS011;40741;45.002;7.536;2024-02-14T13:41:55;8.60;;;5.68;;
54841;SDS011;40741;45.002;7.536;2024-02-14T13:44:23;12.52;;;8.20;;
54841;SDS011;40741;45.002;7.536;2024-02-14T13:46:49;6.15;;;3.65;;
54841;SDS011;40741;45.002;7.536;2024-02-14T13:49:17;11.00;;;6.07;;
54841;SDS011;40741;45.002;7.536;2024-02-14T13:51:55;4.85;;;3.05;;
54841;SDS011;40741;45.002;7.536;2024-02-14T13:54:23;7.65;;;4.30;;
54841;SDS011;40741;45.002;7.536;2024-02-14T13:56:49;13.43;;;8.43;;
54841;SDS011;40741;45.002;7.536;2024-02-14T13:59:15;15.63;;;9.88;;
54841;SDS011;40741;45.002;7.536;2024-02-14T14:01:41;10.98;;;7.18;;
54841;SDS011;40741;45.002;7.536;2024-02-14T14:04:07;16.33;;;7.32;;
54841;SDS011;40741;45.002;7.536;2024-02-14T14:06:33;25.48;;;9.52;;
54841;SDS011;40741;45.002;7.536;2024-02-14T14:08:59;15.27;;;9.75;;
54841;SDS011;40741;45.002;7.536;2024-02-14T14:11:25;16.73;;;9.27;;
54841;SDS011;40741;45.002;7.536;2024-02-14T14:13:51;15.00;;;9.45;;
54841;SDS011;40741;45.002;7.536;2024-02-14T14:16:17;11.88;;;6.35;;
54841;SDS011;40741;45.002;7.536;2024-02-14T14:18:46;9.32;;;5.40;;
54841;SDS011;40741;45.002;7.536;2024-02-14T14:21:12;14.85;;;9.20;;
54841;SDS011;40741;45.002;7.536;2024-02-14T14:23:38;16.25;;;9.05;;